Time,TemperatureF,DewpointF,PressureIn,WindDirection,WindDirectionDegrees,WindSpeedMPH,WindSpeedGustMPH,Humidity,HourlyPrecipIn,Conditions,Clouds,dailyrainin,SoftwareType,DateUTC
2013-01-27 00:03:00,42.7,39.1,30.03,SSW,203,1.1,2.9,87,0.00,,,0.00,WUHU216HW,2013-01-27 08:03:00,
2013-01-27 00:08:00,42.8,39.3,30.04,South,180,1.3,1.8,87,0.00,,,0.00,WUHU216HW,2013-01-27 08:08:00,
2013-01-27 00:13:00,42.8,39.3,30.03,South,180,0.4,2.2,87,0.00,,,0.00,WUHU216HW,2013-01-27 08:13:00,
2013-01-27 00:18:00,42.8,39.3,30.03,SSW,203,1.8,2.2,87,0.00,,,0.00,WUHU216HW,2013-01-27 08:18:00,
2013-01-27 00:23:00,42.8,39.3,30.03,SW,225,0.9,1.8,87,0.00,,,0.00,WUHU216HW,2013-01-27 08:23:00,
2013-01-27 00:28:00,42.7,39.1,30.03,SW,225,0.4,2.5,87,0.00,,,0.00,WUHU216HW,2013-01-27 08:28:00,
2013-01-27 00:33:00,42.7,39.1,30.03,South,180,0.2,2.5,87,0.00,,,0.00,WUHU216HW,2013-01-27 08:33:00,
2013-01-27 00:38:00,42.7,39.1,30.03,SSW,203,0.9,2.5,87,0.00,,,0.00,WUHU216HW,2013-01-27 08:38:00,
2013-01-27 00:43:00,42.7,39.1,30.03,SSW,203,0.4,3.4,87,0.00,,,0.00,WUHU216HW,2013-01-27 08:43:00,
2013-01-27 00:48:00,42.7,39.1,30.03,SSW,203,0.9,3.4,87,0.00,,,0.00,WUHU216HW,2013-01-27 08:48:00,
2013-01-27 00:53:00,42.7,39.1,30.03,South,180,1.8,1.8,87,0.00,,,0.00,WUHU216HW,2013-01-27 08:53:00,
2013-01-27 00:58:00,42.7,39.1,30.03,SSE,158,2.0,3.4,87,0.00,,,0.00,WUHU216HW,2013-01-27 08:58:00,
2013-01-27 01:03:00,42.7,39.1,30.03,SSW,203,2.5,3.4,87,0.00,,,0.00,WUHU216HW,2013-01-27 09:03:00,
2013-01-27 01:08:00,42.7,39.1,30.03,South,180,3.4,3.4,87,0.00,,,0.00,WUHU216HW,2013-01-27 09:08:00,
2013-01-27 01:13:00,42.5,38.9,30.03,South,180,1.3,3.4,87,0.00,,,0.00,WUHU216HW,2013-01-27 09:13:00,
2013-01-27 01:18:00,42.5,38.9,30.03,SSE,158,0.7,3.1,87,0.00,,,0.00,WUHU216HW,2013-01-27 09:18:00,
2013-01-27 01:23:00,42.5,38.9,30.03,SW,225,0.9,1.3,87,0.00,,,0.00,WUHU216HW,2013-01-27 09:23:00,
2013-01-27 01:28:00,42.5,38.9,30.03,SSW,203,1.8,1.8,87,0.00,,,0.00,WUHU216HW,2013-01-27 09:28:00,
2013-01-27 01:33:00,42.5,38.9,30.03,SSW,203,0.4,1.8,87,0.00,,,0.00,WUHU216HW,2013-01-27 09:33:00,
2013-01-27 01:38:00,42.5,38.9,30.03,NE,45,0.4,1.3,87,0.00,,,0.00,WUHU216HW,2013-01-27 09:38:00,
2013-01-27 01:43:00,42.5,38.9,30.03,South,180,2.0,2.0,87,0.00,,,0.00,WUHU216HW,2013-01-27 09:43:00,
2013-01-27 01:48:00,42.5,38.9,30.03,SSW,203,1.8,2.5,87,0.00,,,0.00,WUHU216HW,2013-01-27 09:48:00,
2013-01-27 01:53:00,42.5,38.9,30.03,SSE,158,2.7,3.1,87,0.00,,,0.00,WUHU216HW,2013-01-27 09:53:00,
2013-01-27 01:58:00,42.5,38.9,30.03,South,180,2.0,3.1,87,0.00,,,0.00,WUHU216HW,2013-01-27 09:58:00,
2013-01-27 02:03:00,42.5,38.9,30.03,South,180,2.9,2.9,87,0.00,,,0.00,WUHU216HW,2013-01-27 10:03:00,
2013-01-27 02:08:00,42.5,38.9,30.03,South,180,2.0,2.9,87,0.00,,,0.00,WUHU216HW,2013-01-27 10:08:00,
2013-01-27 02:13:00,42.5,38.9,30.03,SSW,203,0.4,2.5,87,0.00,,,0.00,WUHU216HW,2013-01-27 10:13:00,
2013-01-27 02:18:00,42.5,38.9,30.03,SW,225,1.3,2.5,87,0.00,,,0.00,WUHU216HW,2013-01-27 10:18:00,
2013-01-27 02:23:00,42.3,38.7,30.03,SSW,203,0.4,3.4,87,0.00,,,0.00,WUHU216HW,2013-01-27 10:23:00,
2013-01-27 02:28:00,42.5,38.9,30.03,South,180,1.6,3.4,87,0.00,,,0.00,WUHU216HW,2013-01-27 10:28:00,
2013-01-27 02:33:00,42.5,38.9,30.03,South,180,0.7,2.0,87,0.00,,,0.00,WUHU216HW,2013-01-27 10:33:00,
2013-01-27 02:38:00,42.5,38.9,30.03,South,180,1.1,2.0,87,0.00,,,0.00,WUHU216HW,2013-01-27 10:38:00,
2013-01-27 02:43:00,42.3,38.7,30.03,SSW,203,1.1,2.0,87,0.00,,,0.00,WUHU216HW,2013-01-27 10:43:00,
2013-01-27 02:48:00,42.3,39.0,30.03,South,180,1.8,2.0,88,0.00,,,0.00,WUHU216HW,2013-01-27 10:48:00,
2013-01-27 02:53:00,42.3,39.0,30.03,WSW,248,0.7,1.8,88,0.00,,,0.00,WUHU216HW,2013-01-27 10:53:00,
2013-01-27 02:58:00,42.3,39.0,30.03,South,180,1.1,1.8,88,0.00,,,0.00,WUHU216HW,2013-01-27 10:58:00,
2013-01-27 03:03:00,42.5,39.2,30.03,SSW,203,0.7,1.1,88,0.00,,,0.00,WUHU216HW,2013-01-27 11:03:00,
2013-01-27 03:08:00,42.5,39.2,30.03,SSW,203,2.5,2.5,88,0.00,,,0.00,WUHU216HW,2013-01-27 11:08:00,
2013-01-27 03:13:00,42.5,39.2,30.04,SSW,203,1.1,2.5,88,0.00,,,0.00,WUHU216HW,2013-01-27 11:13:00,
2013-01-27 03:18:00,42.5,39.2,30.03,SW,225,0.4,2.0,88,0.00,,,0.00,WUHU216HW,2013-01-27 11:18:00,
2013-01-27 03:23:00,42.5,39.2,30.03,SW,225,0.4,2.0,88,0.00,,,0.00,WUHU216HW,2013-01-27 11:23:00,
2013-01-27 03:28:00,42.5,39.5,30.03,South,180,0.2,2.0,89,0.00,,,0.00,WUHU216HW,2013-01-27 11:28:00,
2013-01-27 03:33:00,42.5,39.5,30.03,SW,225,0.4,1.1,89,0.00,,,0.00,WUHU216HW,2013-01-27 11:33:00,
2013-01-27 03:38:00,42.5,39.5,30.03,SSW,203,1.1,1.1,89,0.00,,,0.00,WUHU216HW,2013-01-27 11:38:00,
2013-01-27 03:43:00,42.5,39.2,30.03,North,0,0.7,1.1,88,0.00,,,0.00,WUHU216HW,2013-01-27 11:43:00,
2013-01-27 03:48:00,42.3,39.3,30.03,South,180,0.4,1.1,89,0.00,,,0.00,WUHU216HW,2013-01-27 11:48:00,
2013-01-27 03:53:00,42.3,39.0,30.03,SSW,203,0.0,1.6,88,0.00,,,0.00,WUHU216HW,2013-01-27 11:53:00,
2013-01-27 03:58:00,42.3,39.0,30.03,WSW,248,0.9,1.6,88,0.00,,,0.00,WUHU216HW,2013-01-27 11:58:00,
2013-01-27 04:03:00,42.3,39.0,30.03,SW,225,0.2,1.1,88,0.00,,,0.00,WUHU216HW,2013-01-27 12:03:00,
2013-01-27 04:08:00,42.3,39.0,30.03,South,180,0.9,1.1,88,0.00,,,0.00,WUHU216HW,2013-01-27 12:08:00,
2013-01-27 04:13:00,42.1,38.8,30.03,SW,225,1.1,1.3,88,0.00,,,0.00,WUHU216HW,2013-01-27 12:13:00,
2013-01-27 04:18:00,42.1,38.8,30.03,WSW,248,2.7,2.7,88,0.00,,,0.00,WUHU216HW,2013-01-27 12:18:00,
2013-01-27 04:23:00,42.1,38.8,30.03,SSW,203,0.0,2.7,88,0.00,,,0.00,WUHU216HW,2013-01-27 12:23:00,
2013-01-27 04:28:00,42.1,38.8,30.03,SSW,203,0.4,1.8,88,0.00,,,0.00,WUHU216HW,2013-01-27 12:28:00,
2013-01-27 04:33:00,42.1,38.8,30.03,SSW,203,0.9,1.6,88,0.00,,,0.00,WUHU216HW,2013-01-27 12:33:00,
2013-01-27 04:38:00,42.1,38.8,30.03,SW,225,0.4,1.6,88,0.00,,,0.00,WUHU216HW,2013-01-27 12:38:00,
2013-01-27 04:43:00,42.1,38.8,30.03,NW,315,1.8,3.4,88,0.00,,,0.00,WUHU216HW,2013-01-27 12:43:00,
2013-01-27 04:48:00,42.1,38.8,30.03,SSE,158,0.0,3.4,88,0.00,,,0.00,WUHU216HW,2013-01-27 12:48:00,
2013-01-27 04:53:00,42.1,38.8,30.03,SSW,203,0.4,2.2,88,0.00,,,0.00,WUHU216HW,2013-01-27 12:53:00,
2013-01-27 04:58:00,42.1,38.8,30.03,WSW,248,0.0,0.4,88,0.00,,,0.00,WUHU216HW,2013-01-27 12:58:00,
2013-01-27 05:03:00,42.1,38.8,30.03,South,180,1.6,1.6,88,0.00,,,0.00,WUHU216HW,2013-01-27 13:03:00,
2013-01-27 05:08:00,42.1,38.5,30.03,SSE,158,1.3,1.6,87,0.00,,,0.00,WUHU216HW,2013-01-27 13:08:00,
2013-01-27 05:13:00,42.1,38.5,30.03,SSW,203,2.2,3.1,87,0.00,,,0.00,WUHU216HW,2013-01-27 13:13:00,
2013-01-27 05:18:00,42.1,38.5,30.03,SSW,203,1.1,3.1,87,0.00,,,0.00,WUHU216HW,2013-01-27 13:18:00,
2013-01-27 05:23:00,42.1,38.5,30.03,SSW,203,0.4,1.3,87,0.00,,,0.00,WUHU216HW,2013-01-27 13:23:00,
2013-01-27 05:28:00,42.1,38.5,30.03,South,180,0.9,2.0,87,0.00,,,0.00,WUHU216HW,2013-01-27 13:28:00,
2013-01-27 05:33:00,42.1,38.5,30.03,SW,225,0.2,2.0,87,0.00,,,0.00,WUHU216HW,2013-01-27 13:33:00,
2013-01-27 05:38:00,42.1,38.5,30.03,SSW,203,0.2,2.2,87,0.00,,,0.00,WUHU216HW,2013-01-27 13:38:00,
2013-01-27 05:43:00,42.1,38.5,30.03,South,180,0.7,2.2,87,0.00,,,0.00,WUHU216HW,2013-01-27 13:43:00,
2013-01-27 05:48:00,42.1,38.5,30.03,South,180,0.9,1.3,87,0.00,,,0.00,WUHU216HW,2013-01-27 13:48:00,
2013-01-27 05:53:00,42.1,38.5,30.03,South,180,1.1,1.3,87,0.00,,,0.00,WUHU216HW,2013-01-27 13:53:00,
2013-01-27 05:58:00,42.1,38.5,30.03,South,180,0.0,2.2,87,0.00,,,0.00,WUHU216HW,2013-01-27 13:58:00,
2013-01-27 06:03:00,42.1,38.5,30.03,South,180,2.2,3.6,87,0.00,,,0.00,WUHU216HW,2013-01-27 14:03:00,
2013-01-27 06:08:00,42.1,38.5,30.03,SSW,203,0.2,3.6,87,0.00,,,0.00,WUHU216HW,2013-01-27 14:08:00,
2013-01-27 06:13:00,42.1,38.5,30.03,South,180,3.6,3.6,87,0.00,,,0.00,WUHU216HW,2013-01-27 14:13:00,
2013-01-27 06:18:00,42.1,38.5,30.03,SSW,203,0.4,3.6,87,0.00,,,0.00,WUHU216HW,2013-01-27 14:18:00,
2013-01-27 06:23:00,42.1,38.5,30.03,SSE,158,0.7,3.4,87,0.00,,,0.00,WUHU216HW,2013-01-27 14:23:00,
2013-01-27 06:28:00,42.1,38.5,30.03,South,180,1.8,3.6,87,0.00,,,0.00,WUHU216HW,2013-01-27 14:28:00,
2013-01-27 06:33:00,42.1,38.5,30.03,SSE,158,1.8,3.6,87,0.00,,,0.00,WUHU216HW,2013-01-27 14:33:00,
2013-01-27 06:38:00,42.1,38.5,30.03,SW,225,0.9,1.8,87,0.00,,,0.00,WUHU216HW,2013-01-27 14:38:00,
2013-01-27 06:43:00,42.1,38.5,30.03,South,180,0.0,3.4,87,0.00,,,0.00,WUHU216HW,2013-01-27 14:43:00,
2013-01-27 06:48:00,42.1,38.5,30.03,SSW,203,0.7,3.4,87,0.00,,,0.00,WUHU216HW,2013-01-27 14:48:00,
2013-01-27 06:53:00,42.1,38.5,30.03,South,180,1.1,1.6,87,0.00,,,0.00,WUHU216HW,2013-01-27 14:53:00,
2013-01-27 06:58:00,42.1,38.5,30.03,SSW,203,0.0,1.6,87,0.00,,,0.00,WUHU216HW,2013-01-27 14:58:00,
2013-01-27 07:03:00,42.1,38.5,30.03,South,180,1.8,2.0,87,0.00,,,0.00,WUHU216HW,2013-01-27 15:03:00,
2013-01-27 07:08:00,42.1,38.5,30.03,South,180,2.2,2.5,87,0.00,,,0.00,WUHU216HW,2013-01-27 15:08:00,
2013-01-27 07:13:00,42.1,38.5,30.03,SSW,203,0.7,2.5,87,0.00,,,0.00,WUHU216HW,2013-01-27 15:13:00,
2013-01-27 07:18:00,42.1,38.5,30.03,SSE,158,2.7,4.5,87,0.00,,,0.00,WUHU216HW,2013-01-27 15:18:00,
2013-01-27 07:23:00,42.1,38.5,30.03,South,180,2.5,4.5,87,0.00,,,0.00,WUHU216HW,2013-01-27 15:23:00,
2013-01-27 07:28:00,42.1,38.5,30.03,SSE,158,1.1,2.5,87,0.00,,,0.00,WUHU216HW,2013-01-27 15:28:00,
2013-01-27 07:33:00,42.1,38.5,30.03,SW,225,1.8,2.5,87,0.00,,,0.00,WUHU216HW,2013-01-27 15:33:00,
2013-01-27 07:38:00,42.1,38.5,30.03,SSW,203,2.0,2.5,87,0.00,,,0.00,WUHU216HW,2013-01-27 15:38:00,
2013-01-27 07:43:00,42.1,38.5,30.03,SSE,158,1.8,2.5,87,0.00,,,0.00,WUHU216HW,2013-01-27 15:43:00,
2013-01-27 07:48:00,42.1,38.5,30.03,SE,135,3.4,3.4,87,0.00,,,0.00,WUHU216HW,2013-01-27 15:48:00,
2013-01-27 07:53:00,42.1,38.5,30.03,SE,135,2.2,3.4,87,0.00,,,0.00,WUHU216HW,2013-01-27 15:53:00,
2013-01-27 07:58:00,42.1,38.2,30.03,South,180,3.1,3.6,86,0.00,,,0.00,WUHU216HW,2013-01-27 15:58:00,
2013-01-27 08:03:00,42.1,38.2,30.03,South,180,2.5,3.8,86,0.00,,,0.00,WUHU216HW,2013-01-27 16:03:00,
2013-01-27 08:08:00,42.1,38.2,30.03,South,180,2.7,3.8,86,0.00,,,0.00,WUHU216HW,2013-01-27 16:08:00,
2013-01-27 08:13:00,42.1,38.2,30.03,South,180,3.4,3.4,86,0.00,,,0.00,WUHU216HW,2013-01-27 16:13:00,
2013-01-27 08:18:00,42.1,38.2,30.04,South,180,2.5,3.8,86,0.00,,,0.00,WUHU216HW,2013-01-27 16:18:00,
2013-01-27 08:23:00,42.1,38.2,30.04,SSW,203,2.7,3.8,86,0.00,,,0.00,WUHU216HW,2013-01-27 16:23:00,
2013-01-27 08:28:00,42.1,38.2,30.04,SSW,203,1.1,4.7,86,0.00,,,0.00,WUHU216HW,2013-01-27 16:28:00,
2013-01-27 08:33:00,42.3,38.3,30.04,SW,225,1.6,4.7,86,0.00,,,0.00,WUHU216HW,2013-01-27 16:33:00,
2013-01-27 08:38:00,42.1,38.2,30.04,South,180,4.0,4.0,86,0.00,,,0.00,WUHU216HW,2013-01-27 16:38:00,
2013-01-27 08:43:00,42.1,38.2,30.04,SSW,203,1.1,4.7,86,0.00,,,0.00,WUHU216HW,2013-01-27 16:43:00,
2013-01-27 08:48:00,42.3,38.3,30.04,South,180,0.2,4.7,86,0.00,,,0.00,WUHU216HW,2013-01-27 16:48:00,
2013-01-27 08:53:00,42.3,38.3,30.04,West,270,1.8,2.7,86,0.00,,,0.00,WUHU216HW,2013-01-27 16:53:00,
2013-01-27 08:58:00,42.1,38.2,30.04,SSW,203,1.8,2.7,86,0.00,,,0.00,WUHU216HW,2013-01-27 16:58:00,
2013-01-27 09:03:00,42.3,38.3,30.04,SSW,203,2.2,2.5,86,0.00,,,0.00,WUHU216HW,2013-01-27 17:03:00,
2013-01-27 09:08:00,42.3,38.3,30.04,South,180,6.3,6.3,86,0.00,,,0.00,WUHU216HW,2013-01-27 17:08:00,
2013-01-27 09:13:00,42.5,38.5,30.04,West,270,2.0,6.3,86,0.00,,,0.00,WUHU216HW,2013-01-27 17:13:00,
2013-01-27 09:18:00,42.5,38.5,30.05,SE,135,2.5,4.7,86,0.00,,,0.00,WUHU216HW,2013-01-27 17:18:00,
2013-01-27 09:23:00,42.5,38.5,30.05,NW,315,1.1,4.7,86,0.00,,,0.00,WUHU216HW,2013-01-27 17:23:00,
2013-01-27 09:28:00,42.7,38.7,30.05,SSW,203,1.1,4.0,86,0.00,,,0.00,WUHU216HW,2013-01-27 17:28:00,
2013-01-27 09:33:00,42.8,38.9,30.04,SSW,203,2.5,4.0,86,0.00,,,0.00,WUHU216HW,2013-01-27 17:33:00,
2013-01-27 09:38:00,42.8,38.9,30.04,SSW,203,1.1,2.9,86,0.00,,,0.00,WUHU216HW,2013-01-27 17:38:00,
2013-01-27 09:43:00,42.8,38.9,30.05,South,180,0.9,2.9,86,0.00,,,0.00,WUHU216HW,2013-01-27 17:43:00,
2013-01-27 09:48:00,43.0,39.1,30.05,South,180,2.5,4.5,86,0.00,,,0.00,WUHU216HW,2013-01-27 17:48:00,
2013-01-27 09:53:00,43.0,39.1,30.05,SSE,158,4.0,4.5,86,0.00,,,0.00,WUHU216HW,2013-01-27 17:53:00,
2013-01-27 09:58:00,43.0,38.8,30.05,NNW,338,0.4,4.0,85,0.00,,,0.00,WUHU216HW,2013-01-27 17:58:00,
2013-01-27 10:03:00,43.2,39.2,30.05,SSW,203,1.1,2.2,86,0.00,,,0.00,WUHU216HW,2013-01-27 18:03:00,
2013-01-27 10:08:00,43.4,39.4,30.05,South,180,0.4,3.1,86,0.00,,,0.00,WUHU216HW,2013-01-27 18:08:00,
2013-01-27 10:13:00,43.4,39.2,30.05,South,180,4.5,4.5,85,0.00,,,0.00,WUHU216HW,2013-01-27 18:13:00,
2013-01-27 10:18:00,43.4,39.4,30.05,South,180,0.2,5.1,86,0.00,,,0.00,WUHU216HW,2013-01-27 18:18:00,
2013-01-27 10:23:00,43.4,39.4,30.06,SSW,203,4.7,5.1,86,0.00,,,0.00,WUHU216HW,2013-01-27 18:23:00,
2013-01-27 10:28:00,43.4,39.4,30.06,South,180,2.5,4.7,86,0.00,,,0.00,WUHU216HW,2013-01-27 18:28:00,
2013-01-27 10:33:00,43.6,40.0,30.05,South,180,1.8,3.4,87,0.00,,,0.00,WUHU216HW,2013-01-27 18:33:00,
2013-01-27 10:38:00,43.6,40.0,30.06,South,180,5.4,5.4,87,0.00,,,0.00,WUHU216HW,2013-01-27 18:38:00,
2013-01-27 10:43:00,43.6,40.0,30.06,South,180,1.8,5.4,87,0.00,,,0.00,WUHU216HW,2013-01-27 18:43:00,
2013-01-27 10:48:00,43.7,40.4,30.06,WSW,248,4.3,4.3,88,0.00,,,0.00,WUHU216HW,2013-01-27 18:48:00,
2013-01-27 10:53:00,43.7,40.4,30.06,SSW,203,2.7,4.5,88,0.00,,,0.00,WUHU216HW,2013-01-27 18:53:00,
2013-01-27 10:58:00,43.6,40.2,30.06,SSE,158,2.5,4.5,88,0.01,,,0.01,WUHU216HW,2013-01-27 18:58:00,
2013-01-27 11:03:00,43.6,40.2,30.05,South,180,2.2,4.5,88,0.01,,,0.01,WUHU216HW,2013-01-27 19:03:00,
2013-01-27 11:08:00,43.6,40.2,30.05,South,180,1.1,4.5,88,0.02,,,0.01,WUHU216HW,2013-01-27 19:08:00,
2013-01-27 11:13:00,43.6,40.6,30.05,SSW,203,3.1,3.4,89,0.02,,,0.01,WUHU216HW,2013-01-27 19:13:00,
2013-01-27 11:18:00,43.6,40.2,30.05,SW,225,1.8,3.1,88,0.02,,,0.01,WUHU216HW,2013-01-27 19:18:00,
2013-01-27 11:23:00,43.6,40.6,30.05,South,180,3.1,3.8,89,0.02,,,0.01,WUHU216HW,2013-01-27 19:23:00,
2013-01-27 11:28:00,43.6,40.2,30.05,South,180,4.7,4.7,88,0.02,,,0.01,WUHU216HW,2013-01-27 19:28:00,
2013-01-27 11:33:00,43.6,40.2,30.04,SSW,203,4.0,4.7,88,0.02,,,0.01,WUHU216HW,2013-01-27 19:33:00,
2013-01-27 11:38:00,43.6,40.2,30.04,SE,135,2.9,4.7,88,0.02,,,0.01,WUHU216HW,2013-01-27 19:38:00,
2013-01-27 11:43:00,43.6,40.6,30.04,SSW,203,4.7,6.5,89,0.02,,,0.01,WUHU216HW,2013-01-27 19:43:00,
2013-01-27 11:48:00,43.6,40.2,30.04,SSW,203,2.5,6.5,88,0.02,,,0.01,WUHU216HW,2013-01-27 19:48:00,
2013-01-27 11:53:00,43.6,40.2,30.04,SW,225,2.5,5.8,88,0.01,,,0.01,WUHU216HW,2013-01-27 19:53:00,
2013-01-27 11:58:00,43.6,40.2,30.03,SW,225,3.1,5.1,88,0.01,,,0.01,WUHU216HW,2013-01-27 19:58:00,
2013-01-27 12:03:00,43.6,40.2,30.03,South,180,2.5,5.1,88,0.01,,,0.01,WUHU216HW,2013-01-27 20:03:00,
2013-01-27 12:08:00,43.6,40.2,30.03,South,180,4.0,4.7,88,0.00,,,0.01,WUHU216HW,2013-01-27 20:08:00,
2013-01-27 12:13:00,43.6,40.2,30.03,SSE,158,2.5,5.4,88,0.00,,,0.01,WUHU216HW,2013-01-27 20:13:00,
2013-01-27 12:18:00,43.4,40.1,30.03,WSW,248,0.9,5.4,88,0.00,,,0.01,WUHU216HW,2013-01-27 20:18:00,
2013-01-27 12:23:00,43.4,40.1,30.03,SW,225,3.1,3.8,88,0.00,,,0.01,WUHU216HW,2013-01-27 20:23:00,
2013-01-27 12:28:00,43.4,40.1,30.02,SW,225,2.0,6.0,88,0.00,,,0.01,WUHU216HW,2013-01-27 20:28:00,
2013-01-27 12:33:00,43.4,40.1,30.02,SW,225,5.1,6.0,88,0.00,,,0.01,WUHU216HW,2013-01-27 20:33:00,
2013-01-27 12:38:00,43.4,40.1,30.02,South,180,3.8,5.1,88,0.00,,,0.01,WUHU216HW,2013-01-27 20:38:00,
2013-01-27 12:43:00,43.4,40.1,30.02,SSW,203,3.4,5.1,88,0.01,,,0.03,WUHU216HW,2013-01-27 20:43:00,
2013-01-27 12:48:00,43.2,39.9,30.01,South,180,6.3,6.3,88,0.01,,,0.03,WUHU216HW,2013-01-27 20:48:00,
2013-01-27 12:53:00,43.2,39.9,30.01,South,180,2.0,6.3,88,0.01,,,0.03,WUHU216HW,2013-01-27 20:53:00,
2013-01-27 12:58:00,43.4,40.1,30.01,South,180,2.5,5.8,88,0.01,,,0.03,WUHU216HW,2013-01-27 20:58:00,
2013-01-27 13:03:00,43.4,40.1,30.01,South,180,4.7,6.3,88,0.01,,,0.03,WUHU216HW,2013-01-27 21:03:00,
2013-01-27 13:08:00,43.2,39.6,30.00,SSW,203,2.5,6.3,87,0.01,,,0.03,WUHU216HW,2013-01-27 21:08:00,
2013-01-27 13:13:00,43.2,39.6,30.00,SSW,203,3.6,5.4,87,0.01,,,0.03,WUHU216HW,2013-01-27 21:13:00,
2013-01-27 13:18:00,43.2,39.6,30.00,South,180,4.0,5.4,87,0.01,,,0.03,WUHU216HW,2013-01-27 21:18:00,
2013-01-27 13:23:00,43.0,39.4,30.00,South,180,1.1,4.7,87,0.01,,,0.03,WUHU216HW,2013-01-27 21:23:00,
2013-01-27 13:28:00,43.0,39.4,30.00,SSE,158,3.8,5.8,87,0.01,,,0.03,WUHU216HW,2013-01-27 21:28:00,
2013-01-27 13:33:00,43.0,39.4,30.00,SSE,158,6.3,6.3,87,0.01,,,0.03,WUHU216HW,2013-01-27 21:33:00,
2013-01-27 13:38:00,43.0,39.4,30.00,SSW,203,4.3,6.3,87,0.00,,,0.03,WUHU216HW,2013-01-27 21:38:00,
2013-01-27 13:43:00,43.0,39.4,30.00,WSW,248,3.1,6.7,87,0.00,,,0.03,WUHU216HW,2013-01-27 21:43:00,
2013-01-27 13:48:00,43.0,39.4,30.00,SSW,203,4.3,6.7,87,0.00,,,0.03,WUHU216HW,2013-01-27 21:48:00,
2013-01-27 13:53:00,43.2,39.6,30.00,SSW,203,1.8,5.8,87,0.00,,,0.03,WUHU216HW,2013-01-27 21:53:00,
2013-01-27 13:58:00,43.2,39.6,29.99,South,180,3.6,5.8,87,0.00,,,0.03,WUHU216HW,2013-01-27 21:58:00,
2013-01-27 14:03:00,43.2,39.6,30.00,South,180,5.1,5.4,87,0.00,,,0.03,WUHU216HW,2013-01-27 22:03:00,
2013-01-27 14:08:00,43.0,39.4,29.99,SSW,203,2.9,5.4,87,0.00,,,0.03,WUHU216HW,2013-01-27 22:08:00,
2013-01-27 14:13:00,43.2,39.6,30.00,SSE,158,2.9,6.0,87,0.00,,,0.03,WUHU216HW,2013-01-27 22:13:00,
2013-01-27 14:18:00,43.2,39.6,30.00,SSW,203,3.4,6.0,87,0.00,,,0.03,WUHU216HW,2013-01-27 22:18:00,
2013-01-27 14:23:00,43.2,39.6,30.00,SSW,203,2.7,5.4,87,0.00,,,0.03,WUHU216HW,2013-01-27 22:23:00,
2013-01-27 14:28:00,43.0,39.4,30.00,South,180,4.5,7.6,87,0.00,,,0.03,WUHU216HW,2013-01-27 22:28:00,
2013-01-27 14:33:00,43.0,39.4,30.00,South,180,5.6,9.8,87,0.00,,,0.03,WUHU216HW,2013-01-27 22:33:00,
2013-01-27 14:38:00,43.0,39.4,30.00,South,180,5.4,9.8,87,0.00,,,0.03,WUHU216HW,2013-01-27 22:38:00,
2013-01-27 14:43:00,43.0,39.4,30.00,SE,135,6.7,7.6,87,0.00,,,0.03,WUHU216HW,2013-01-27 22:43:00,
2013-01-27 14:48:00,43.0,39.4,30.00,SSE,158,3.4,6.7,87,0.00,,,0.03,WUHU216HW,2013-01-27 22:48:00,
2013-01-27 14:53:00,43.0,39.4,30.00,SW,225,3.4,5.8,87,0.00,,,0.03,WUHU216HW,2013-01-27 22:53:00,
2013-01-27 14:58:00,43.0,39.4,30.00,South,180,4.3,7.4,87,0.00,,,0.03,WUHU216HW,2013-01-27 22:58:00,
2013-01-27 15:03:00,42.8,39.3,30.00,SSW,203,6.9,7.4,87,0.00,,,0.03,WUHU216HW,2013-01-27 23:03:00,
2013-01-27 15:08:00,42.8,39.3,30.00,SSE,158,3.1,6.9,87,0.00,,,0.03,WUHU216HW,2013-01-27 23:08:00,
2013-01-27 15:13:00,42.8,39.3,30.00,SSW,203,5.4,5.8,87,0.00,,,0.03,WUHU216HW,2013-01-27 23:13:00,
2013-01-27 15:18:00,42.8,39.3,30.00,SSE,158,3.6,5.4,87,0.00,,,0.03,WUHU216HW,2013-01-27 23:18:00,
2013-01-27 15:23:00,42.8,39.5,30.00,South,180,1.3,4.7,88,0.00,,,0.03,WUHU216HW,2013-01-27 23:23:00,
2013-01-27 15:28:00,42.8,39.5,30.00,SSE,158,3.4,3.8,88,0.01,,,0.03,WUHU216HW,2013-01-27 23:28:00,
2013-01-27 15:33:00,42.8,39.3,30.00,SW,225,1.1,3.8,87,0.01,,,0.04,WUHU216HW,2013-01-27 23:33:00,
2013-01-27 15:38:00,42.8,39.5,30.00,South,180,4.7,4.7,88,0.01,,,0.04,WUHU216HW,2013-01-27 23:38:00,
2013-01-27 15:43:00,42.8,39.5,30.00,SW,225,4.0,4.7,88,0.01,,,0.04,WUHU216HW,2013-01-27 23:43:00,
2013-01-27 15:48:00,42.8,39.5,30.00,SSW,203,6.0,6.0,88,0.01,,,0.04,WUHU216HW,2013-01-27 23:48:00,
2013-01-27 15:53:00,42.7,39.3,30.00,SSW,203,1.1,6.0,88,0.01,,,0.04,WUHU216HW,2013-01-27 23:53:00,
2013-01-27 15:58:00,42.7,39.3,30.00,SSE,158,4.0,5.4,88,0.01,,,0.04,WUHU216HW,2013-01-27 23:58:00,
2013-01-27 16:03:00,42.7,39.7,30.00,SSE,158,2.7,4.9,89,0.01,,,0.04,WUHU216HW,2013-01-28 00:03:00,
2013-01-27 16:08:00,42.7,39.3,30.00,SSE,158,1.8,3.4,88,0.01,,,0.04,WUHU216HW,2013-01-28 00:08:00,
2013-01-27 16:13:00,42.7,39.7,29.99,SW,225,5.4,5.4,89,0.01,,,0.04,WUHU216HW,2013-01-28 00:13:00,
2013-01-27 16:18:00,42.7,39.7,30.00,SSW,203,1.8,5.4,89,0.02,,,0.04,WUHU216HW,2013-01-28 00:18:00,
2013-01-27 16:23:00,42.7,39.7,29.99,WSW,248,1.6,5.1,89,0.02,,,0.05,WUHU216HW,2013-01-28 00:23:00,
2013-01-27 16:28:00,42.5,39.5,29.99,SW,225,3.4,5.1,89,0.01,,,0.05,WUHU216HW,2013-01-28 00:28:00,
2013-01-27 16:33:00,42.5,39.5,29.99,SSW,203,2.2,4.9,89,0.01,,,0.05,WUHU216HW,2013-01-28 00:33:00,
2013-01-27 16:38:00,42.5,39.5,29.99,SSW,203,3.4,3.8,89,0.02,,,0.05,WUHU216HW,2013-01-28 00:38:00,
2013-01-27 16:43:00,42.5,39.5,29.99,South,180,2.7,4.0,89,0.02,,,0.06,WUHU216HW,2013-01-28 00:43:00,
2013-01-27 16:48:00,42.5,39.5,29.99,SSW,203,1.3,4.0,89,0.02,,,0.06,WUHU216HW,2013-01-28 00:48:00,
2013-01-27 16:53:00,42.5,39.5,29.99,SSW,203,4.0,6.3,89,0.02,,,0.06,WUHU216HW,2013-01-28 00:53:00,
2013-01-27 16:58:00,42.5,39.5,29.99,SW,225,5.8,6.3,89,0.02,,,0.06,WUHU216HW,2013-01-28 00:58:00,
2013-01-27 17:03:00,42.5,39.5,29.99,SSW,203,4.7,7.6,89,0.02,,,0.06,WUHU216HW,2013-01-28 01:03:00,
2013-01-27 17:08:00,42.5,39.5,29.99,SSW,203,4.5,7.6,89,0.02,,,0.06,WUHU216HW,2013-01-28 01:08:00,
2013-01-27 17:13:00,42.3,39.3,29.99,South,180,2.5,5.8,89,0.02,,,0.06,WUHU216HW,2013-01-28 01:13:00,
2013-01-27 17:18:00,42.3,39.3,29.99,SE,135,2.9,6.7,89,0.01,,,0.06,WUHU216HW,2013-01-28 01:18:00,
2013-01-27 17:23:00,42.3,39.3,29.99,WSW,248,5.1,6.7,89,0.01,,,0.06,WUHU216HW,2013-01-28 01:23:00,
2013-01-27 17:28:00,42.3,39.3,29.99,South,180,4.0,5.1,89,0.01,,,0.06,WUHU216HW,2013-01-28 01:28:00,
2013-01-27 17:33:00,42.3,39.3,29.99,SSW,203,5.4,6.0,89,0.01,,,0.06,WUHU216HW,2013-01-28 01:33:00,
2013-01-27 17:38:00,42.3,39.3,29.99,South,180,1.6,6.0,89,0.00,,,0.06,WUHU216HW,2013-01-28 01:38:00,
2013-01-27 17:43:00,42.3,39.3,29.99,South,180,2.5,5.4,89,0.00,,,0.06,WUHU216HW,2013-01-28 01:43:00,
2013-01-27 17:48:00,42.3,39.3,29.99,South,180,2.9,2.9,89,0.00,,,0.06,WUHU216HW,2013-01-28 01:48:00,
2013-01-27 17:53:00,42.3,39.3,29.99,SSW,203,1.3,3.4,89,0.00,,,0.06,WUHU216HW,2013-01-28 01:53:00,
2013-01-27 17:58:00,42.3,39.3,29.99,WSW,248,1.8,3.4,89,0.00,,,0.06,WUHU216HW,2013-01-28 01:58:00,
2013-01-27 18:03:00,42.3,39.3,29.99,SSW,203,2.0,3.4,89,0.00,,,0.06,WUHU216HW,2013-01-28 02:03:00,
2013-01-27 18:08:00,42.3,39.3,29.99,SSW,203,1.8,5.6,89,0.00,,,0.06,WUHU216HW,2013-01-28 02:08:00,
2013-01-27 18:13:00,42.3,39.3,29.99,SSE,158,1.8,5.6,89,0.00,,,0.06,WUHU216HW,2013-01-28 02:13:00,
2013-01-27 18:18:00,42.3,39.3,29.99,South,180,1.6,4.3,89,0.00,,,0.06,WUHU216HW,2013-01-28 02:18:00,
2013-01-27 18:23:00,42.3,39.6,29.99,South,180,2.0,4.3,90,0.00,,,0.06,WUHU216HW,2013-01-28 02:23:00,
2013-01-27 18:28:00,42.1,39.4,29.99,South,180,4.3,4.3,90,0.00,,,0.06,WUHU216HW,2013-01-28 02:28:00,
2013-01-27 18:33:00,42.1,39.4,29.99,South,180,4.0,4.3,90,0.00,,,0.06,WUHU216HW,2013-01-28 02:33:00,
2013-01-27 18:38:00,42.1,39.2,29.99,SW,225,3.1,4.0,89,0.00,,,0.06,WUHU216HW,2013-01-28 02:38:00,
2013-01-27 18:43:00,42.1,39.4,29.99,SW,225,1.1,3.1,90,0.00,,,0.06,WUHU216HW,2013-01-28 02:43:00,
2013-01-27 18:48:00,42.1,39.4,29.99,SSE,158,2.9,2.9,90,0.00,,,0.06,WUHU216HW,2013-01-28 02:48:00,
2013-01-27 18:53:00,42.1,39.2,29.99,West,270,0.4,2.9,89,0.00,,,0.06,WUHU216HW,2013-01-28 02:53:00,
2013-01-27 18:58:00,42.1,39.2,30.00,SSE,158,2.5,2.5,89,0.00,,,0.06,WUHU216HW,2013-01-28 02:58:00,
2013-01-27 19:03:00,42.1,39.2,30.00,SSW,203,1.8,4.3,89,0.00,,,0.06,WUHU216HW,2013-01-28 03:03:00,
2013-01-27 19:08:00,42.1,39.2,30.00,SW,225,1.1,4.3,89,0.00,,,0.06,WUHU216HW,2013-01-28 03:08:00,
2013-01-27 19:13:00,42.1,39.2,30.00,SW,225,5.1,5.1,89,0.00,,,0.06,WUHU216HW,2013-01-28 03:13:00,
2013-01-27 19:18:00,42.3,39.3,30.00,SSW,203,3.1,7.2,89,0.00,,,0.06,WUHU216HW,2013-01-28 03:18:00,
2013-01-27 19:23:00,42.1,39.2,30.00,South,180,0.4,7.2,89,0.00,,,0.06,WUHU216HW,2013-01-28 03:23:00,
2013-01-27 19:28:00,42.1,39.2,30.00,South,180,1.8,3.4,89,0.00,,,0.06,WUHU216HW,2013-01-28 03:28:00,
2013-01-27 19:33:00,42.3,39.3,30.00,SW,225,2.9,2.9,89,0.00,,,0.06,WUHU216HW,2013-01-28 03:33:00,
2013-01-27 19:38:00,42.3,39.3,30.00,WNW,293,1.1,2.9,89,0.00,,,0.06,WUHU216HW,2013-01-28 03:38:00,
2013-01-27 19:43:00,42.3,39.3,30.00,South,180,0.4,2.9,89,0.00,,,0.06,WUHU216HW,2013-01-28 03:43:00,
2013-01-27 19:48:00,42.3,39.3,30.00,WSW,248,0.9,4.0,89,0.00,,,0.06,WUHU216HW,2013-01-28 03:48:00,
2013-01-27 19:53:00,42.3,39.3,30.00,South,180,3.4,4.0,89,0.00,,,0.06,WUHU216HW,2013-01-28 03:53:00,
2013-01-27 19:58:00,42.3,39.3,30.00,SSW,203,4.0,4.0,89,0.00,,,0.06,WUHU216HW,2013-01-28 03:58:00,
2013-01-27 20:03:00,42.3,39.3,30.00,SSW,203,5.8,5.8,89,0.00,,,0.06,WUHU216HW,2013-01-28 04:03:00,
2013-01-27 20:08:00,42.3,39.3,30.00,SSW,203,3.8,5.8,89,0.00,,,0.06,WUHU216HW,2013-01-28 04:08:00,
2013-01-27 20:13:00,42.1,39.2,30.00,South,180,3.1,4.9,89,0.00,,,0.06,WUHU216HW,2013-01-28 04:13:00,
2013-01-27 20:18:00,42.3,39.3,30.00,South,180,3.4,4.7,89,0.00,,,0.06,WUHU216HW,2013-01-28 04:18:00,
2013-01-27 20:23:00,42.3,39.3,30.00,SSE,158,4.0,4.0,89,0.00,,,0.06,WUHU216HW,2013-01-28 04:23:00,
2013-01-27 20:28:00,42.3,39.3,30.00,SSE,158,1.6,4.0,89,0.00,,,0.06,WUHU216HW,2013-01-28 04:28:00,
2013-01-27 20:33:00,42.3,39.3,30.00,SW,225,2.2,2.9,89,0.00,,,0.06,WUHU216HW,2013-01-28 04:33:00,
2013-01-27 20:38:00,42.3,39.3,30.00,South,180,2.2,2.9,89,0.00,,,0.06,WUHU216HW,2013-01-28 04:38:00,
2013-01-27 20:43:00,42.3,39.3,30.00,SSW,203,1.1,2.5,89,0.00,,,0.06,WUHU216HW,2013-01-28 04:43:00,
2013-01-27 20:48:00,42.3,39.3,30.00,SW,225,3.1,5.4,89,0.00,,,0.06,WUHU216HW,2013-01-28 04:48:00,
2013-01-27 20:53:00,42.3,39.3,30.00,South,180,1.1,5.4,89,0.00,,,0.06,WUHU216HW,2013-01-28 04:53:00,
2013-01-27 20:58:00,42.3,39.3,30.00,SSW,203,0.9,3.1,89,0.00,,,0.06,WUHU216HW,2013-01-28 04:58:00,
2013-01-27 21:00:00,42.5,39.5,30.00,SSW,203,0.4,3.1,89,0.00,,,0.06,WUHU216HW,2013-01-28 05:00:00,
2013-01-27 21:03:00,42.3,39.3,30.00,SSW,203,2.2,2.7,89,0.00,,,0.06,WUHU216HW,2013-01-28 05:03:00,
2013-01-27 21:08:00,42.5,39.5,30.00,South,180,1.8,3.1,89,0.00,,,0.06,WUHU216HW,2013-01-28 05:08:00,
2013-01-27 21:13:00,42.5,39.5,30.00,South,180,1.6,4.0,89,0.00,,,0.06,WUHU216HW,2013-01-28 05:13:00,
2013-01-27 21:18:00,42.5,39.5,30.00,South,180,2.9,4.0,89,0.00,,,0.06,WUHU216HW,2013-01-28 05:18:00,
2013-01-27 21:23:00,42.5,39.5,30.00,South,180,1.8,3.1,89,0.00,,,0.06,WUHU216HW,2013-01-28 05:23:00,
2013-01-27 21:28:00,42.5,39.2,29.99,SSW,203,3.6,3.6,88,0.00,,,0.06,WUHU216HW,2013-01-28 05:28:00,
2013-01-27 21:33:00,42.3,39.0,30.00,South,180,1.8,3.6,88,0.00,,,0.06,WUHU216HW,2013-01-28 05:33:00,
2013-01-27 21:38:00,42.3,39.0,30.00,SSW,203,2.5,3.4,88,0.00,,,0.06,WUHU216HW,2013-01-28 05:38:00,
2013-01-27 21:43:00,42.3,39.0,30.00,South,180,0.9,3.4,88,0.00,,,0.06,WUHU216HW,2013-01-28 05:43:00,
2013-01-27 21:48:00,42.3,39.0,30.00,SSE,158,0.4,3.4,88,0.00,,,0.06,WUHU216HW,2013-01-28 05:48:00,
2013-01-27 21:53:00,42.3,39.0,30.00,South,180,0.4,2.9,88,0.00,,,0.06,WUHU216HW,2013-01-28 05:53:00,
2013-01-27 21:58:00,42.3,39.0,30.00,South,180,2.2,3.8,88,0.00,,,0.06,WUHU216HW,2013-01-28 05:58:00,
2013-01-27 22:03:00,42.5,39.5,30.00,South,180,2.5,3.8,89,0.00,,,0.06,WUHU216HW,2013-01-28 06:03:00,
2013-01-27 22:08:00,42.3,39.3,29.99,South,180,1.8,2.9,89,0.00,,,0.06,WUHU216HW,2013-01-28 06:08:00,
2013-01-27 22:13:00,42.3,39.3,29.99,South,180,2.5,3.8,89,0.00,,,0.06,WUHU216HW,2013-01-28 06:13:00,
2013-01-27 22:18:00,42.1,39.2,29.99,SSE,158,4.0,4.0,89,0.01,,,0.06,WUHU216HW,2013-01-28 06:18:00,
2013-01-27 22:23:00,42.1,39.4,29.99,South,180,4.3,4.3,90,0.01,,,0.07,WUHU216HW,2013-01-28 06:23:00,
2013-01-27 22:28:00,42.1,39.2,29.99,South,180,1.1,4.3,89,0.01,,,0.07,WUHU216HW,2013-01-28 06:28:00,
2013-01-27 22:33:00,42.1,39.4,29.99,SSW,203,0.7,2.5,90,0.01,,,0.07,WUHU216HW,2013-01-28 06:33:00,
2013-01-27 22:38:00,42.1,39.4,29.99,SSE,158,1.1,1.8,90,0.01,,,0.07,WUHU216HW,2013-01-28 06:38:00,
2013-01-27 22:43:00,42.1,39.4,29.99,South,180,0.9,2.5,90,0.01,,,0.07,WUHU216HW,2013-01-28 06:43:00,
2013-01-27 22:48:00,42.1,39.4,29.99,SE,135,1.1,3.4,90,0.01,,,0.07,WUHU216HW,2013-01-28 06:48:00,
2013-01-27 22:53:00,42.1,39.4,30.00,South,180,1.1,3.4,90,0.01,,,0.07,WUHU216HW,2013-01-28 06:53:00,
2013-01-27 22:58:00,42.1,39.4,30.00,SSW,203,0.7,2.0,90,0.01,,,0.07,WUHU216HW,2013-01-28 06:58:00,
2013-01-27 23:03:00,42.1,39.4,30.00,SSW,203,0.7,2.0,90,0.01,,,0.07,WUHU216HW,2013-01-28 07:03:00,
2013-01-27 23:08:00,42.1,39.4,30.00,South,180,0.7,2.2,90,0.01,,,0.07,WUHU216HW,2013-01-28 07:08:00,
2013-01-27 23:13:00,42.1,39.4,29.99,South,180,1.6,4.7,90,0.01,,,0.07,WUHU216HW,2013-01-28 07:13:00,
2013-01-27 23:18:00,42.1,39.4,29.99,South,180,2.0,4.7,90,0.00,,,0.07,WUHU216HW,2013-01-28 07:18:00,
2013-01-27 23:23:00,41.9,39.2,29.99,South,180,3.1,3.1,90,0.00,,,0.07,WUHU216HW,2013-01-28 07:23:00,
2013-01-27 23:28:00,41.9,39.2,30.00,South,180,1.3,3.1,90,0.00,,,0.07,WUHU216HW,2013-01-28 07:28:00,
2013-01-27 23:33:00,42.1,39.4,30.00,SSW,203,0.4,3.1,90,0.00,,,0.07,WUHU216HW,2013-01-28 07:33:00,
2013-01-27 23:38:00,42.1,39.4,30.00,South,180,1.1,1.6,90,0.00,,,0.07,WUHU216HW,2013-01-28 07:38:00,
2013-01-27 23:43:00,42.1,39.4,30.00,South,180,2.9,2.9,90,0.00,,,0.07,WUHU216HW,2013-01-28 07:43:00,
2013-01-27 23:48:00,42.1,39.4,30.00,SSE,158,2.0,2.9,90,0.00,,,0.07,WUHU216HW,2013-01-28 07:48:00,
2013-01-27 23:53:00,42.1,39.4,30.00,South,180,1.1,2.5,90,0.00,,,0.07,WUHU216HW,2013-01-28 07:53:00,
2013-01-27 23:58:00,42.1,39.4,30.00,SSW,203,0.4,1.3,90,0.00,,,0.07,WUHU216HW,2013-01-28 07:58:00,